createdAt,value
2019-03-28T00:00:38.081Z,12.57
2019-03-28T00:03:06.208Z,11.90
2019-03-28T00:05:34.441Z,11.53
2019-03-28T00:08:03.229Z,16.40
2019-03-28T00:10:31.477Z,11.97
2019-03-28T00:12:59.593Z,11.90
2019-03-28T00:15:27.789Z,14.10
2019-03-28T00:18:01.039Z,12.43
2019-03-28T00:20:29.332Z,11.33
2019-03-28T00:23:07.279Z,10.63
2019-03-28T00:25:35.643Z,10.43
2019-03-28T00:28:05.005Z,13.70
2019-03-28T00:30:33.201Z,12.07
2019-03-28T00:33:01.507Z,12.17
2019-03-28T00:35:30.256Z,12.83
2019-03-28T00:37:58.386Z,11.13
2019-03-28T00:40:26.482Z,11.47
2019-03-28T00:42:54.611Z,12.13
2019-03-28T00:45:23.003Z,12.63
2019-03-28T00:47:51.795Z,11.97
2019-03-28T00:50:19.908Z,11.73
2019-03-28T00:52:48.057Z,13.13
2019-03-28T00:55:16.145Z,13.40
2019-03-28T00:57:44.313Z,11.93
2019-03-28T01:00:14.879Z,12.07
2019-03-28T01:02:42.994Z,12.17
2019-03-28T01:05:11.984Z,13.27
2019-03-28T01:07:40.188Z,13.10
2019-03-28T01:10:09.071Z,11.53
2019-03-28T01:12:37.192Z,12.50
2019-03-28T01:15:05.862Z,11.80
2019-03-28T01:17:35.038Z,10.77
2019-03-28T01:20:03.962Z,14.93
2019-03-28T01:22:32.036Z,11.73
2019-03-28T01:25:00.421Z,13.10
2019-03-28T01:27:28.443Z,13.00
2019-03-28T01:29:57.230Z,12.20
2019-03-28T01:32:25.471Z,14.00
2019-03-28T01:34:53.665Z,12.23
2019-03-28T01:37:21.747Z,10.80
2019-03-28T01:39:50.237Z,12.90
2019-03-28T01:42:18.403Z,14.40
2019-03-28T01:44:46.427Z,17.63
2019-03-28T01:47:14.587Z,13.77
2019-03-28T01:49:42.702Z,12.47
2019-03-28T01:52:10.814Z,15.40
2019-03-28T01:54:39.053Z,14.03
2019-03-28T01:57:11.247Z,12.80
2019-03-28T01:59:37.102Z,14.27
2019-03-28T02:02:05.189Z,15.97
2019-03-28T02:04:33.260Z,15.23
2019-03-28T02:07:05.637Z,14.67
2019-03-28T02:09:33.727Z,13.80
2019-03-28T02:12:01.853Z,15.73
2019-03-28T02:14:30.014Z,14.70
2019-03-28T02:17:12.319Z,13.27
2019-03-28T02:19:40.483Z,15.90
2019-03-28T02:22:09.246Z,15.80
2019-03-28T02:24:37.351Z,15.83
2019-03-28T02:27:05.613Z,15.53
2019-03-28T02:29:33.727Z,15.23
2019-03-28T02:32:01.859Z,13.63
2019-03-28T02:34:30.019Z,14.87
2019-03-28T02:36:58.172Z,14.37
2019-03-28T02:39:26.280Z,13.40
2019-03-28T02:41:54.466Z,12.20
2019-03-28T02:44:23.009Z,14.20
2019-03-28T02:46:51.111Z,12.83
2019-03-28T02:49:19.928Z,11.97
2019-03-28T02:51:48.798Z,13.47
2019-03-28T02:54:16.969Z,13.27
2019-03-28T02:56:45.135Z,16.10
2019-03-28T02:59:13.418Z,16.50
2019-03-28T03:01:41.564Z,14.43
2019-03-28T03:04:11.032Z,17.93
2019-03-28T03:06:39.174Z,16.83
2019-03-28T03:09:09.260Z,14.47
2019-03-28T03:11:37.473Z,16.60
2019-03-28T03:14:05.631Z,15.53
2019-03-28T03:16:33.711Z,14.63
2019-03-28T03:19:01.903Z,18.23
2019-03-28T03:21:30.728Z,16.87
2019-03-28T03:23:58.897Z,20.93
2019-03-28T03:26:27.057Z,16.40
2019-03-28T03:28:55.169Z,16.47
2019-03-28T03:31:24.999Z,19.40
2019-03-28T03:33:53.940Z,15.53
2019-03-28T03:36:22.246Z,18.73
2019-03-28T03:38:50.422Z,17.57
2019-03-28T03:41:18.587Z,21.40
2019-03-28T03:43:46.785Z,18.80
2019-03-28T03:46:14.981Z,18.40
2019-03-28T03:48:43.114Z,17.27
2019-03-28T03:51:11.578Z,16.30
2019-03-28T03:53:39.687Z,16.60
2019-03-28T03:56:07.865Z,16.17
2019-03-28T03:58:40.602Z,17.37
2019-03-28T04:01:08.925Z,19.97
2019-03-28T04:03:37.054Z,19.00
2019-03-28T04:06:05.201Z,14.00
2019-03-28T04:08:42.757Z,14.97
2019-03-28T04:11:11.001Z,14.23
2019-03-28T04:13:40.130Z,15.47
2019-03-28T04:16:08.976Z,12.70
2019-03-28T04:18:37.598Z,17.17
2019-03-28T04:21:14.146Z,17.23
2019-03-28T04:23:42.355Z,17.57
2019-03-28T04:26:11.128Z,19.80
2019-03-28T04:28:39.339Z,19.30
2019-03-28T04:31:07.449Z,15.90
2019-03-28T04:33:35.867Z,15.23
2019-03-28T04:36:04.278Z,18.93
2019-03-28T04:38:42.421Z,15.47
2019-03-28T04:41:10.541Z,19.50
2019-03-28T04:43:38.668Z,19.03
2019-03-28T04:46:06.881Z,22.03
2019-03-28T04:48:39.340Z,21.47
2019-03-28T04:51:07.526Z,21.47
2019-03-28T04:53:35.652Z,22.80
2019-03-28T04:56:03.783Z,22.27
2019-03-28T04:58:43.920Z,18.77
2019-03-28T05:01:02.307Z,23.20
2019-03-28T05:03:30.513Z,23.37
2019-03-28T05:06:01.228Z,20.43
2019-03-28T05:08:29.483Z,22.27
2019-03-28T05:10:57.631Z,22.77
2019-03-28T05:13:25.800Z,21.20
2019-03-28T05:15:53.960Z,25.67
2019-03-28T05:18:30.644Z,21.53
2019-03-28T05:20:58.927Z,24.57
2019-03-28T05:23:27.034Z,25.30
2019-03-28T05:26:14.344Z,23.47
2019-03-28T05:28:56.943Z,22.30
2019-03-28T05:31:15.614Z,24.80
2019-03-28T05:33:47.581Z,23.53
2019-03-28T05:36:18.698Z,25.50
2019-03-28T05:38:46.920Z,21.43
2019-03-28T05:41:17.393Z,24.17
2019-03-28T05:43:45.590Z,24.00
2019-03-28T05:46:14.138Z,23.70
2019-03-28T05:48:44.528Z,24.17
2019-03-28T05:51:12.670Z,29.90
2019-03-28T05:53:43.891Z,27.10
2019-03-28T05:56:11.036Z,25.87
2019-03-28T05:58:39.283Z,27.63
2019-03-28T06:01:08.556Z,28.30
2019-03-28T06:03:36.780Z,25.13
2019-03-28T06:06:06.120Z,25.97
2019-03-28T06:08:34.271Z,27.07
2019-03-28T06:11:02.629Z,23.00
2019-03-28T06:13:30.788Z,31.90
2019-03-28T06:15:58.982Z,27.37
2019-03-28T06:18:27.107Z,28.10
2019-03-28T06:20:55.478Z,27.27
2019-03-28T06:23:23.926Z,23.57
2019-03-28T06:25:52.166Z,28.27
2019-03-28T06:28:22.725Z,28.27
2019-03-28T06:30:55.938Z,33.57
2019-03-28T06:33:24.424Z,29.37
2019-03-28T06:35:52.787Z,29.30
2019-03-28T06:38:25.634Z,29.70
2019-03-28T06:40:53.944Z,30.20
2019-03-28T06:43:22.189Z,31.57
2019-03-28T06:45:50.700Z,28.40
2019-03-28T06:48:21.899Z,36.93
2019-03-28T06:50:50.085Z,33.33
2019-03-28T06:53:20.529Z,32.57
2019-03-28T06:55:48.783Z,31.03
2019-03-28T06:58:17.036Z,29.37
2019-03-28T07:00:47.497Z,27.77
2019-03-28T07:03:15.829Z,32.47
2019-03-28T07:05:43.951Z,31.73
2019-03-28T07:08:12.105Z,31.67
2019-03-28T07:10:40.321Z,33.97
2019-03-28T07:13:08.489Z,34.93
2019-03-28T07:15:36.994Z,30.10
2019-03-28T07:18:05.387Z,36.30
2019-03-28T07:20:33.699Z,32.60
2019-03-28T07:23:03.259Z,33.47
2019-03-28T07:25:32.057Z,31.63
2019-03-28T07:28:02.403Z,32.40
2019-03-28T07:30:30.517Z,34.17
2019-03-28T07:32:58.999Z,33.10
2019-03-28T07:35:27.960Z,34.53
2019-03-28T07:37:57.139Z,31.07
2019-03-28T07:40:28.472Z,35.10
2019-03-28T07:42:56.700Z,36.63
2019-03-28T07:45:24.889Z,36.50
2019-03-28T07:47:54.935Z,34.80
2019-03-28T07:50:23.055Z,37.13
2019-03-28T07:52:51.188Z,34.30
2019-03-28T07:55:19.352Z,34.70
2019-03-28T07:57:47.466Z,35.37
2019-03-28T08:00:15.829Z,30.23
2019-03-28T08:02:43.944Z,33.83
2019-03-28T08:05:13.110Z,35.10
2019-03-28T08:07:45.193Z,39.67
2019-03-28T08:10:11.735Z,33.97
2019-03-28T08:12:39.837Z,34.70
2019-03-28T08:15:08.886Z,33.30
2019-03-28T08:17:40.062Z,36.33
2019-03-28T08:20:10.362Z,32.77
2019-03-28T08:22:38.596Z,32.37
2019-03-28T08:25:11.200Z,31.93
2019-03-28T08:27:37.181Z,34.07
2019-03-28T08:30:17.538Z,30.90
2019-03-28T08:32:39.625Z,37.63
2019-03-28T08:35:07.234Z,32.47
2019-03-28T08:37:36.699Z,32.63
2019-03-28T08:40:06.312Z,38.97
2019-03-28T08:42:35.782Z,34.03
2019-03-28T08:45:06.487Z,34.77
2019-03-28T08:47:37.932Z,35.57
2019-03-28T08:50:06.987Z,32.77
2019-03-28T08:52:35.085Z,35.27
2019-03-28T08:55:03.333Z,32.00
2019-03-28T08:57:31.451Z,37.60
2019-03-28T08:59:59.850Z,37.07
2019-03-28T09:02:28.039Z,33.67
2019-03-28T09:04:56.358Z,32.07
2019-03-28T09:07:26.598Z,32.33
2019-03-28T09:09:54.711Z,35.00
2019-03-28T09:12:24.202Z,31.40
2019-03-28T09:14:55.216Z,33.30
2019-03-28T09:17:24.475Z,32.57
2019-03-28T09:19:52.676Z,33.40
2019-03-28T09:22:20.903Z,28.17
2019-03-28T09:24:49.078Z,29.03
2019-03-28T09:27:18.314Z,29.10
2019-03-28T09:29:46.451Z,24.53
2019-03-28T09:32:14.847Z,28.17
2019-03-28T09:34:43.106Z,24.33
2019-03-28T09:37:11.172Z,32.07
2019-03-28T09:39:41.750Z,24.47
2019-03-28T09:42:09.924Z,31.50
2019-03-28T09:44:38.079Z,28.87
2019-03-28T09:47:07.200Z,27.00
2019-03-28T09:49:35.388Z,27.73
2019-03-28T09:52:04.010Z,30.30
2019-03-28T09:54:32.216Z,30.53
2019-03-28T09:57:06.334Z,31.50
2019-03-28T09:59:37.378Z,27.63
2019-03-28T10:02:05.795Z,32.63
2019-03-28T10:04:37.969Z,30.40
2019-03-28T10:07:25.430Z,32.47
2019-03-28T10:09:53.635Z,25.33
2019-03-28T10:12:21.714Z,32.00
2019-03-28T10:14:49.822Z,28.73
2019-03-28T10:17:23.993Z,27.97
2019-03-28T10:19:52.307Z,26.03
2019-03-28T10:22:22.344Z,29.07
2019-03-28T10:24:51.305Z,26.90
2019-03-28T10:27:19.609Z,25.27
2019-03-28T10:29:47.778Z,30.57
2019-03-28T10:32:16.079Z,26.10
2019-03-28T10:34:44.962Z,26.63
2019-03-28T10:37:16.273Z,26.80
2019-03-28T10:39:44.431Z,25.70
2019-03-28T10:42:12.575Z,24.30
2019-03-28T10:44:40.679Z,28.73
2019-03-28T10:47:11.513Z,25.20
2019-03-28T10:49:39.865Z,24.80
2019-03-28T10:52:11.920Z,25.00
2019-03-28T10:54:38.049Z,24.80
2019-03-28T10:57:13.658Z,24.17
2019-03-28T10:59:36.613Z,23.17
2019-03-28T11:02:05.455Z,22.80
2019-03-28T11:04:33.931Z,21.30
2019-03-28T11:07:02.067Z,23.73
2019-03-28T11:09:34.855Z,23.03
2019-03-28T11:12:02.979Z,22.97
2019-03-28T11:14:52.107Z,18.93
2019-03-28T11:17:24.382Z,20.23
2019-03-28T11:19:55.936Z,20.67
2019-03-28T11:22:35.490Z,20.33
2019-03-28T11:25:04.755Z,25.43
2019-03-28T11:27:33.893Z,17.37
2019-03-28T11:30:02.651Z,12.97
2019-03-28T11:32:30.805Z,13.00
2019-03-28T11:34:58.964Z,10.03
2019-03-28T11:37:45.846Z,10.07
2019-03-28T11:40:14.355Z,21.83
2019-03-28T11:42:42.556Z,23.30
2019-03-28T11:45:13.449Z,26.33
2019-03-28T11:47:41.615Z,20.40
2019-03-28T11:50:11.895Z,25.07
2019-03-28T11:52:42.579Z,25.47
2019-03-28T11:55:10.041Z,25.00
2019-03-28T11:57:38.168Z,26.13
2019-03-28T12:00:09.755Z,23.73
2019-03-28T12:02:37.926Z,22.53
2019-03-28T12:05:07.325Z,24.53
2019-03-28T12:07:37.639Z,22.37
2019-03-28T12:10:08.907Z,23.20
2019-03-28T12:12:39.536Z,23.13
2019-03-28T12:15:08.934Z,22.80
2019-03-28T12:17:37.465Z,23.30
2019-03-28T12:20:05.946Z,22.50
2019-03-28T12:22:34.118Z,20.80
2019-03-28T12:25:02.279Z,16.53
2019-03-28T12:27:31.535Z,16.50
2019-03-28T12:29:59.734Z,16.57
2019-03-28T12:32:27.995Z,17.13
2019-03-28T12:34:56.604Z,17.97
2019-03-28T12:37:24.938Z,17.90
2019-03-28T12:39:54.466Z,17.40
2019-03-28T12:42:22.635Z,21.80
2019-03-28T12:44:56.793Z,16.60
2019-03-28T12:47:20.838Z,16.73
2019-03-28T12:49:49.185Z,18.47
2019-03-28T12:52:18.468Z,18.07
2019-03-28T12:54:46.925Z,17.50
2019-03-28T12:57:17.084Z,16.40
2019-03-28T12:59:47.078Z,15.90
2019-03-28T13:02:29.874Z,14.43
2019-03-28T13:04:51.383Z,13.90
2019-03-28T13:07:19.538Z,13.10
2019-03-28T13:09:47.698Z,15.43
2019-03-28T13:12:15.902Z,13.50
2019-03-28T13:14:44.256Z,14.17
2019-03-28T13:17:12.439Z,13.43
2019-03-28T13:19:40.617Z,14.37
2019-03-28T13:22:08.782Z,17.27
2019-03-28T13:24:37.354Z,16.17
2019-03-28T13:27:08.670Z,15.50
2019-03-28T13:29:37.955Z,18.90
2019-03-28T13:32:06.625Z,15.00
2019-03-28T13:34:34.721Z,16.30
2019-03-28T13:37:02.860Z,15.13
2019-03-28T13:39:31.042Z,12.90
2019-03-28T13:41:59.137Z,14.03
2019-03-28T13:44:30.075Z,16.00
2019-03-28T13:46:57.181Z,14.33
2019-03-28T13:49:25.314Z,13.97
2019-03-28T13:51:53.443Z,15.10
2019-03-28T13:54:23.294Z,16.20
2019-03-28T13:56:51.665Z,12.17
2019-03-28T13:59:19.772Z,15.27
2019-03-28T14:01:47.913Z,12.03
2019-03-28T14:04:15.907Z,11.83
2019-03-28T14:06:44.036Z,9.80
2019-03-28T14:09:12.175Z,13.80
2019-03-28T14:11:40.335Z,10.23
2019-03-28T14:14:08.449Z,10.20
2019-03-28T14:16:37.232Z,10.20
2019-03-28T14:19:05.346Z,10.10
2019-03-28T14:21:33.470Z,8.90
2019-03-28T14:24:01.646Z,12.20
2019-03-28T14:26:29.787Z,8.97
2019-03-28T14:28:57.999Z,10.87
2019-03-28T14:31:26.103Z,8.83
2019-03-28T14:33:54.648Z,8.40
2019-03-28T14:36:25.163Z,10.07
2019-03-28T14:38:54.043Z,10.10
2019-03-28T14:41:22.611Z,11.47
2019-03-28T14:43:52.168Z,8.30
2019-03-28T14:46:20.606Z,8.33
2019-03-28T14:48:48.680Z,8.87
2019-03-28T14:51:16.974Z,8.27
2019-03-28T14:53:45.100Z,8.90
2019-03-28T14:56:13.944Z,11.90
2019-03-28T14:58:56.481Z,11.07
2019-03-28T15:01:26.849Z,9.83
2019-03-28T15:03:55.604Z,12.70
2019-03-28T15:06:24.589Z,11.30
2019-03-28T15:08:53.054Z,11.20
2019-03-28T15:11:21.458Z,10.93
2019-03-28T15:13:49.615Z,10.77
2019-03-28T15:16:17.974Z,8.60
2019-03-28T15:18:46.920Z,9.60
2019-03-28T15:21:15.116Z,10.40
2019-03-28T15:23:45.567Z,12.73
2019-03-28T15:26:14.892Z,11.80
2019-03-28T15:28:43.120Z,11.20
2019-03-28T15:31:11.250Z,9.60
2019-03-28T15:33:40.172Z,10.17
2019-03-28T15:36:08.396Z,10.73
2019-03-28T15:38:36.627Z,12.43
2019-03-28T15:41:07.088Z,9.97
2019-03-28T15:43:35.271Z,10.43
2019-03-28T15:46:03.885Z,10.50
2019-03-28T15:48:33.712Z,11.37
2019-03-28T15:51:02.003Z,9.47
2019-03-28T15:53:30.188Z,12.10
2019-03-28T15:55:58.496Z,11.53
2019-03-28T15:58:27.949Z,10.47
2019-03-28T16:00:56.501Z,11.33
2019-03-28T16:03:26.897Z,10.47
2019-03-28T16:05:58.396Z,7.43
2019-03-28T16:08:26.358Z,8.00
2019-03-28T16:10:54.572Z,12.50
2019-03-28T16:13:25.283Z,10.77
2019-03-28T16:15:53.477Z,11.50
2019-03-28T16:18:23.833Z,11.57
2019-03-28T16:21:00.907Z,11.40
2019-03-28T16:23:33.061Z,8.57
2019-03-28T16:26:04.194Z,8.70
2019-03-28T16:28:32.526Z,13.20
2019-03-28T16:31:00.675Z,7.90
2019-03-28T16:33:29.155Z,8.80
2019-03-28T16:36:00.171Z,11.93
2019-03-28T16:38:32.644Z,7.60
2019-03-28T16:41:46.490Z,10.60
2019-03-28T16:44:22.810Z,10.70
2019-03-28T16:46:51.435Z,9.50
2019-03-28T16:49:19.725Z,7.80
2019-03-28T16:51:48.870Z,8.67
2019-03-28T16:54:18.336Z,7.90
2019-03-28T16:56:46.474Z,8.30
2019-03-28T16:59:14.781Z,8.97
2019-03-28T17:01:42.909Z,8.17
2019-03-28T17:04:20.578Z,8.40
2019-03-28T17:06:41.748Z,7.50
2019-03-28T17:09:11.012Z,9.37
2019-03-28T17:11:39.100Z,8.83
2019-03-28T17:14:07.274Z,6.70
2019-03-28T17:16:35.519Z,9.83
2019-03-28T17:19:03.785Z,8.53
2019-03-28T17:21:34.807Z,11.03
2019-03-28T17:24:05.838Z,9.30
2019-03-28T17:26:37.858Z,7.73
2019-03-28T17:29:07.154Z,9.73
2019-03-28T17:31:38.760Z,12.50
2019-03-28T17:34:07.116Z,12.00
2019-03-28T17:36:37.154Z,10.07
2019-03-28T17:39:13.819Z,10.80
2019-03-28T17:41:42.434Z,8.53
2019-03-28T17:44:10.701Z,8.83
2019-03-28T17:46:39.090Z,9.23
2019-03-28T17:49:10.452Z,10.23
2019-03-28T17:51:40.478Z,10.47
2019-03-28T17:54:09.102Z,13.10
2019-03-28T17:56:37.314Z,12.67
2019-03-28T17:59:09.778Z,10.97
2019-03-28T18:01:37.901Z,11.53
2019-03-28T18:04:07.067Z,11.60
2019-03-28T18:06:35.516Z,8.80
2019-03-28T18:09:11.829Z,11.00
2019-03-28T18:11:43.403Z,10.50
2019-03-28T18:14:11.938Z,9.43
2019-03-28T18:16:40.212Z,8.90
2019-03-28T18:19:08.537Z,10.33
2019-03-28T18:21:36.942Z,8.03
2019-03-28T18:24:05.591Z,9.73
2019-03-28T18:26:42.364Z,8.60
2019-03-28T18:29:19.298Z,10.07
2019-03-28T18:31:50.751Z,9.33
2019-03-28T18:34:17.995Z,8.87
2019-03-28T18:36:48.317Z,10.03
2019-03-28T18:39:16.518Z,9.47
2019-03-28T18:41:49.391Z,11.87
2019-03-28T18:44:17.733Z,8.87
2019-03-28T18:46:45.981Z,16.57
2019-03-28T18:49:19.889Z,11.83
2019-03-28T18:51:51.042Z,15.00
2019-03-28T18:54:21.015Z,11.40
2019-03-28T18:56:49.423Z,12.63
2019-03-28T18:59:32.563Z,10.13
2019-03-28T19:02:00.824Z,11.97
2019-03-28T19:04:31.370Z,9.57
2019-03-28T19:07:02.683Z,11.43
2019-03-28T19:09:31.784Z,9.27
2019-03-28T19:12:03.401Z,11.93
2019-03-28T19:14:32.209Z,13.37
2019-03-28T19:17:00.505Z,14.80
2019-03-28T19:19:38.777Z,10.10
2019-03-28T19:21:58.973Z,10.03
2019-03-28T19:24:27.280Z,10.63
2019-03-28T19:26:59.395Z,10.60
2019-03-28T19:29:27.615Z,10.70
2019-03-28T19:32:04.540Z,13.40
2019-03-28T19:42:30.724Z,17.07
2019-03-28T19:44:59.385Z,14.93
2019-03-28T19:47:28.756Z,16.10
2019-03-28T19:49:57.105Z,14.13
2019-03-28T19:52:25.998Z,17.40
2019-03-28T19:54:54.576Z,18.10
2019-03-28T19:57:22.943Z,19.90
2019-03-28T19:59:52.000Z,19.70
2019-03-28T20:02:20.243Z,19.20
2019-03-28T20:04:51.292Z,19.77
2019-03-28T20:07:21.926Z,18.27
2019-03-28T20:09:50.234Z,16.33
2019-03-28T20:12:19.081Z,19.20
2019-03-28T20:14:54.198Z,17.70
2019-03-28T20:17:30.878Z,19.60
2019-03-28T20:20:01.097Z,19.80
2019-03-28T20:22:30.780Z,17.63
2019-03-28T20:24:59.204Z,18.23
2019-03-28T20:27:27.435Z,16.67
2019-03-28T20:29:55.874Z,19.83
2019-03-28T20:32:24.497Z,18.60
2019-03-28T20:34:52.747Z,20.80
2019-03-28T20:37:21.152Z,18.17
2019-03-28T20:39:49.370Z,16.90
2019-03-28T20:42:17.540Z,17.90
2019-03-28T20:44:45.734Z,19.70
2019-03-28T20:47:19.508Z,15.83
2019-03-28T20:49:47.748Z,16.20
2019-03-28T20:52:16.016Z,18.83
2019-03-28T20:54:44.143Z,17.50
2019-03-28T20:57:12.416Z,18.00
2019-03-28T20:59:40.532Z,16.37
2019-03-28T21:02:08.636Z,17.47
2019-03-28T21:04:37.901Z,18.03
2019-03-28T21:07:15.045Z,17.97
2019-03-28T21:09:43.250Z,17.40
2019-03-28T21:12:11.892Z,15.83
2019-03-28T21:14:40.016Z,20.93
2019-03-28T21:17:17.929Z,17.30
2019-03-28T21:20:00.407Z,19.47
2019-03-28T21:22:29.000Z,18.47
2019-03-28T21:24:57.335Z,19.00
2019-03-28T21:27:27.561Z,19.90
2019-03-28T21:30:22.228Z,21.23
2019-03-28T21:32:55.759Z,22.23
2019-03-28T21:35:22.082Z,26.67
2019-03-28T21:37:53.623Z,18.70
2019-03-28T21:40:21.731Z,20.83
2019-03-28T21:42:49.915Z,20.00
2019-03-28T21:45:18.083Z,20.53
2019-03-28T21:47:47.243Z,20.67
2019-03-28T21:50:15.886Z,20.47
2019-03-28T21:52:50.887Z,19.00
2019-03-28T21:55:19.133Z,18.13
2019-03-28T21:57:47.638Z,23.13
2019-03-28T22:00:15.842Z,22.47
2019-03-28T22:02:44.063Z,20.07
2019-03-28T22:05:12.345Z,19.23
2019-03-28T22:07:46.646Z,20.40
2019-03-28T22:10:14.918Z,20.67
2019-03-28T22:12:43.076Z,21.00
2019-03-28T22:15:11.471Z,21.47
2019-03-28T22:17:42.932Z,20.83
2019-03-28T22:20:11.071Z,24.03
2019-03-28T22:22:39.329Z,21.10
2019-03-28T22:25:07.856Z,22.87
2019-03-28T22:27:36.106Z,23.70
2019-03-28T22:30:09.643Z,19.57
2019-03-28T22:32:39.876Z,23.20
2019-03-28T22:35:10.503Z,22.43
2019-03-28T22:37:38.722Z,23.03
2019-03-28T22:40:07.143Z,19.80
2019-03-28T22:42:35.355Z,23.10
2019-03-28T22:45:04.825Z,23.60
2019-03-28T22:48:10.610Z,22.50
2019-03-28T22:50:35.873Z,23.27
2019-03-28T22:53:04.177Z,21.57
2019-03-28T22:55:33.183Z,22.13
2019-03-28T22:58:09.270Z,23.20
2019-03-28T23:00:48.572Z,22.63
2019-03-28T23:03:16.930Z,25.67
2019-03-28T23:05:51.762Z,23.67
2019-03-28T23:08:22.022Z,26.73
2019-03-28T23:10:50.161Z,23.37
2019-03-28T23:13:18.831Z,26.33
2019-03-28T23:15:47.125Z,23.63
2019-03-28T23:18:25.208Z,23.93
2019-03-28T23:20:53.388Z,24.63
2019-03-28T23:23:21.983Z,24.97
2019-03-28T23:25:51.263Z,24.43
2019-03-28T23:28:26.269Z,25.10
2019-03-28T23:30:54.885Z,25.80
2019-03-28T23:33:23.421Z,24.80
2019-03-28T23:35:51.748Z,22.67
2019-03-28T23:38:32.113Z,25.00
2019-03-28T23:41:00.795Z,26.07
2019-03-28T23:43:35.969Z,25.50
2019-03-28T23:46:03.508Z,22.97
2019-03-28T23:48:43.238Z,21.53
2019-03-28T23:51:11.463Z,22.73
2019-03-28T23:53:39.656Z,25.03
2019-03-28T23:56:07.889Z,21.67
2019-03-28T23:58:51.388Z,26.10
